ADDS METAR Data INFO
IDs: Format: Raw Decoded Include TAF

Data at: 0123 UTC 20 Feb 2018

METAR for:TISX (St Croix/Rohlsen Arp, --, VI)
Text:TISX 200053Z 06015G24KT 10SM FEW030 SCT039 25/19 A3014 RMK AO2 SLP204 T02500194
Temperature: 25.0°C ( 77°F)
Dewpoint: 19.4°C ( 67°F) [RH = 71%]
Pressure (altimeter):30.14 inches Hg (1020.7 mb) [Sea level pressure: 1020.4 mb]
Winds:from the ENE (60 degrees) at 17 MPH (15 knots; 7.7 m/s) gusting to 28 MPH (24 knots; 12.3 m/s)
Visibility:10 or more sm (16+ km)
Ceiling:at least 12,000 feet AGL
Clouds: few clouds at 3000 feet AGL, scattered clouds at 3900 feet AGL